createdAt,value
2022-12-15T00:02:22.643Z,99991.44
2022-12-15T00:05:08.407Z,99988.59
2022-12-15T00:07:53.717Z,99985.72
2022-12-15T00:10:39.173Z,99989.16
2022-12-15T00:13:30.132Z,99984.72
2022-12-15T00:16:15.950Z,99985.03
2022-12-15T00:19:02.652Z,99991.84
2022-12-15T00:21:48.194Z,99989.25
2022-12-15T00:24:33.420Z,99986.00
2022-12-15T00:27:18.939Z,99985.34
2022-12-15T00:30:04.181Z,99979.34
2022-12-15T00:32:49.632Z,99976.22
2022-12-15T00:35:36.159Z,99979.75
2022-12-15T00:38:26.079Z,99994.66
2022-12-15T00:40:58.841Z,99986.59
2022-12-15T00:43:27.027Z,99981.13
2022-12-15T00:46:12.448Z,99987.06
2022-12-15T00:48:40.565Z,99989.69
2022-12-15T00:51:09.054Z,99991.38
2022-12-15T00:53:54.948Z,99987.75
2022-12-15T00:56:40.147Z,99989.72
2022-12-15T00:59:25.613Z,99982.56
2022-12-15T01:02:11.234Z,99992.03
2022-12-15T01:04:56.566Z,99986.25
2022-12-15T01:07:43.332Z,99992.44
2022-12-15T01:10:28.556Z,99990.69
2022-12-15T01:13:13.963Z,99999.78
2022-12-15T01:15:59.604Z,100001.66
2022-12-15T01:18:44.904Z,100006.91
2022-12-15T01:21:17.496Z,100003.03
2022-12-15T01:23:46.588Z,100003.38
2022-12-15T01:26:14.194Z,100000.91
2022-12-15T01:28:41.964Z,100007.94
2022-12-15T01:31:13.227Z,100007.97
2022-12-15T01:33:42.616Z,100003.44
2022-12-15T01:36:11.012Z,100012.38
2022-12-15T01:38:39.183Z,100011.56
2022-12-15T01:41:10.986Z,100011.78
2022-12-15T01:43:40.953Z,100018.78
2022-12-15T01:46:10.209Z,100019.56
2022-12-15T01:48:43.916Z,100023.59
2022-12-15T01:51:17.277Z,100030.19
2022-12-15T01:53:50.185Z,100022.72
2022-12-15T01:56:20.729Z,100020.91
2022-12-15T01:58:51.308Z,100019.59
2022-12-15T02:01:19.272Z,100011.88
2022-12-15T02:03:48.982Z,100015.41
2022-12-15T02:06:18.000Z,100014.44
2022-12-15T02:08:47.485Z,100019.25
2022-12-15T02:11:47.870Z,100019.06
2022-12-15T02:14:25.643Z,100018.47
2022-12-15T02:17:07.650Z,100022.66
2022-12-15T02:20:01.096Z,100022.72
2022-12-15T02:22:41.790Z,100021.16
2022-12-15T02:25:23.484Z,100013.31
2022-12-15T02:27:58.031Z,100023.69
2022-12-15T02:30:36.688Z,100030.72
2022-12-15T02:33:11.339Z,100035.72
2022-12-15T02:35:48.879Z,100047.75
2022-12-15T02:38:16.677Z,100058.31
2022-12-15T02:40:45.835Z,100059.44
2022-12-15T02:43:13.692Z,100066.50
2022-12-15T02:46:01.333Z,100072.44
2022-12-15T02:48:40.198Z,100076.34
2022-12-15T02:51:21.627Z,100077.28
2022-12-15T02:54:09.140Z,100084.75
2022-12-15T02:56:45.827Z,100081.09
2022-12-15T02:59:22.071Z,100086.75
2022-12-15T03:01:56.595Z,100083.34
2022-12-15T03:04:24.577Z,100077.00
2022-12-15T03:07:00.834Z,100077.13
2022-12-15T03:09:29.381Z,100077.00
2022-12-15T03:11:57.270Z,100072.06
2022-12-15T03:14:26.076Z,100078.41
2022-12-15T03:16:55.997Z,100082.38
2022-12-15T03:19:24.335Z,100082.94
2022-12-15T03:21:52.102Z,100079.75
2022-12-15T03:24:20.391Z,100078.00
2022-12-15T03:26:49.955Z,100084.97
2022-12-15T03:29:18.292Z,100086.97
2022-12-15T03:31:46.573Z,100086.19
2022-12-15T03:34:19.289Z,100083.59
2022-12-15T03:36:47.169Z,100081.06
2022-12-15T03:39:14.969Z,100084.72
2022-12-15T03:41:42.811Z,100077.38
2022-12-15T03:44:10.552Z,100086.50
2022-12-15T03:46:38.418Z,100082.78
2022-12-15T03:49:06.538Z,100078.09
2022-12-15T03:51:35.620Z,100088.63
2022-12-15T03:54:03.247Z,100092.53
2022-12-15T03:56:31.112Z,100092.59
2022-12-15T03:58:58.828Z,100098.91
2022-12-15T04:01:29.644Z,100111.06
2022-12-15T04:04:00.929Z,100107.25
2022-12-15T04:06:30.209Z,100100.31
2022-12-15T04:08:59.561Z,100109.06
2022-12-15T04:11:27.470Z,100111.28
2022-12-15T04:13:55.280Z,100111.53
2022-12-15T04:16:23.141Z,100111.06
2022-12-15T04:19:10.972Z,100111.06
2022-12-15T04:21:37.695Z,100110.34
2022-12-15T04:24:25.004Z,100113.75
2022-12-15T04:27:10.456Z,100119.38
2022-12-15T04:29:55.758Z,100113.16
2022-12-15T04:32:41.684Z,100128.50
2022-12-15T04:35:28.148Z,100120.94
2022-12-15T04:38:13.961Z,100119.47
2022-12-15T04:41:00.944Z,100134.50
2022-12-15T04:43:46.471Z,100144.81
2022-12-15T04:46:31.886Z,100144.72
2022-12-15T04:49:17.320Z,100157.97
2022-12-15T04:52:02.671Z,100164.91
2022-12-15T04:54:48.164Z,100171.41
2022-12-15T04:57:34.895Z,100169.75
2022-12-15T05:00:20.230Z,100173.53
2022-12-15T05:03:05.521Z,100172.44
2022-12-15T05:05:50.807Z,100180.78
2022-12-15T05:08:36.320Z,100177.44
2022-12-15T05:11:21.774Z,100167.13
2022-12-15T05:14:08.351Z,100165.69
2022-12-15T05:16:54.452Z,100167.22
2022-12-15T05:19:39.488Z,100167.47
2022-12-15T05:22:24.787Z,100183.94
2022-12-15T05:25:10.163Z,100194.31
2022-12-15T05:27:55.535Z,100197.78
2022-12-15T05:30:42.186Z,100190.75
2022-12-15T05:33:09.956Z,100202.94
2022-12-15T05:35:37.696Z,100203.50
2022-12-15T05:38:06.574Z,100195.72
2022-12-15T05:40:34.423Z,100202.19
2022-12-15T05:43:02.330Z,100208.13
2022-12-15T05:45:31.436Z,100211.81
2022-12-15T05:47:59.231Z,100219.38
2022-12-15T05:50:26.962Z,100210.22
2022-12-15T05:52:55.625Z,100210.63
2022-12-15T05:55:23.483Z,100217.22
2022-12-15T05:57:52.617Z,100248.94
2022-12-15T06:00:20.854Z,100255.53
2022-12-15T06:02:50.374Z,100260.75
2022-12-15T06:05:18.341Z,100250.13
2022-12-15T06:07:46.107Z,100254.56
2022-12-15T06:10:14.038Z,100257.91
2022-12-15T06:12:41.784Z,100252.75
2022-12-15T06:15:10.351Z,100238.03
2022-12-15T06:17:38.503Z,100248.47
2022-12-15T06:20:08.797Z,100242.34
2022-12-15T06:22:36.769Z,100233.28
2022-12-15T06:25:04.911Z,100230.00
2022-12-15T06:27:32.707Z,100236.78
2022-12-15T06:30:01.310Z,100251.19
2022-12-15T06:32:29.106Z,100246.84
2022-12-15T06:34:56.941Z,100247.91
2022-12-15T06:37:26.049Z,100239.56
2022-12-15T06:39:53.630Z,100242.31
2022-12-15T06:42:21.800Z,100253.53
2022-12-15T06:44:49.997Z,100258.09
2022-12-15T06:47:18.364Z,100258.97
2022-12-15T06:49:46.129Z,100249.59
2022-12-15T06:52:13.960Z,100257.84
2022-12-15T06:54:43.433Z,100263.19
2022-12-15T06:57:11.160Z,100271.88
2022-12-15T06:59:39.169Z,100280.44
2022-12-15T07:02:15.677Z,100297.78
2022-12-15T07:04:43.620Z,100291.97
2022-12-15T07:07:11.560Z,100296.56
2022-12-15T07:09:39.282Z,100305.88
2022-12-15T07:12:10.067Z,100304.69
2022-12-15T07:14:37.796Z,100311.88
2022-12-15T07:17:05.563Z,100312.59
2022-12-15T07:19:33.289Z,100326.09
2022-12-15T07:22:01.458Z,100330.31
2022-12-15T07:24:29.259Z,100335.28
2022-12-15T07:26:57.185Z,100331.06
2022-12-15T07:29:27.232Z,100325.66
2022-12-15T07:31:56.003Z,100333.72
2022-12-15T07:34:23.952Z,100339.06
2022-12-15T07:36:52.663Z,100339.81
2022-12-15T07:39:20.656Z,100346.59
2022-12-15T07:41:48.451Z,100341.91
2022-12-15T07:44:16.336Z,100346.53
2022-12-15T07:46:48.944Z,100354.88
2022-12-15T07:49:17.460Z,100356.38
2022-12-15T07:51:45.876Z,100368.63
2022-12-15T07:54:14.304Z,100376.28
2022-12-15T07:56:42.430Z,100373.16
2022-12-15T07:59:10.422Z,100374.84
2022-12-15T08:01:38.331Z,100365.34
2022-12-15T08:04:07.624Z,100367.16
2022-12-15T08:06:35.228Z,100365.59
2022-12-15T08:09:03.214Z,100374.47
2022-12-15T08:11:34.418Z,100374.00
2022-12-15T08:14:04.150Z,100368.03
2022-12-15T08:16:34.524Z,100372.38
2022-12-15T08:19:02.788Z,100379.28
2022-12-15T08:21:32.285Z,100391.25
2022-12-15T08:24:01.877Z,100393.69
2022-12-15T08:26:31.064Z,100395.84
2022-12-15T08:29:24.443Z,100400.72
2022-12-15T08:31:50.713Z,100399.38
2022-12-15T08:34:18.573Z,100400.47
2022-12-15T08:36:47.693Z,100395.03
2022-12-15T08:39:15.203Z,100400.13
2022-12-15T08:41:43.298Z,100406.84
2022-12-15T08:44:11.354Z,100399.47
2022-12-15T08:46:39.890Z,100401.19
2022-12-15T08:49:08.707Z,100401.59
2022-12-15T08:51:36.645Z,100403.19
2022-12-15T08:54:06.128Z,100406.53
2022-12-15T08:56:33.967Z,100404.88
2022-12-15T08:59:03.167Z,100418.69
2022-12-15T09:01:33.356Z,100408.69
2022-12-15T09:04:02.118Z,100413.84
2022-12-15T09:06:32.090Z,100414.44
2022-12-15T09:09:02.404Z,100415.63
2022-12-15T09:11:32.324Z,100427.22
2022-12-15T09:14:00.208Z,100425.31
2022-12-15T09:16:28.573Z,100426.09
2022-12-15T09:18:58.003Z,100419.88
2022-12-15T09:21:27.523Z,100414.72
2022-12-15T09:24:00.191Z,100431.59
2022-12-15T09:26:29.056Z,100434.72
2022-12-15T09:28:58.709Z,100440.34
2022-12-15T09:31:29.298Z,100445.16
2022-12-15T09:34:00.744Z,100443.97
2022-12-15T09:36:30.158Z,100443.25
2022-12-15T09:38:57.932Z,100442.53
2022-12-15T09:41:28.228Z,100444.59
2022-12-15T09:44:00.090Z,100443.25
2022-12-15T09:46:37.107Z,100445.47
2022-12-15T09:49:12.436Z,100433.41
2022-12-15T09:51:45.721Z,100435.53
2022-12-15T09:54:13.607Z,100440.50
2022-12-15T09:56:49.689Z,100440.53
2022-12-15T09:59:31.964Z,100444.78
2022-12-15T10:02:18.704Z,100451.69
2022-12-15T10:04:55.669Z,100452.22
2022-12-15T10:07:29.816Z,100446.44
2022-12-15T10:09:57.872Z,100448.81
2022-12-15T10:12:29.760Z,100446.47
2022-12-15T10:15:11.554Z,100453.13
2022-12-15T10:17:48.518Z,100444.09
2022-12-15T10:20:20.493Z,100450.38
2022-12-15T10:22:50.297Z,100449.84
2022-12-15T10:25:29.351Z,100454.16
2022-12-15T10:28:12.370Z,100445.78
2022-12-15T10:30:52.075Z,100440.13
2022-12-15T10:33:22.104Z,100447.56
2022-12-15T10:35:50.168Z,100447.47
2022-12-15T10:38:25.808Z,100454.94
2022-12-15T10:40:57.134Z,100457.97
2022-12-15T10:43:28.054Z,100456.53
2022-12-15T10:46:06.698Z,100456.63
2022-12-15T10:48:34.550Z,100451.81
2022-12-15T10:51:21.877Z,100457.69
2022-12-15T10:53:52.635Z,100462.47
2022-12-15T10:56:30.612Z,100460.16
2022-12-15T10:59:03.549Z,100463.97
2022-12-15T11:01:35.666Z,100472.81
2022-12-15T11:04:04.073Z,100471.06
2022-12-15T11:06:36.780Z,100475.38
2022-12-15T11:09:28.133Z,100475.78
2022-12-15T11:12:13.748Z,100470.63
2022-12-15T11:14:47.491Z,100479.97
2022-12-15T11:17:20.153Z,100483.56
2022-12-15T11:19:59.835Z,100484.91
2022-12-15T11:22:41.485Z,100480.53
2022-12-15T11:25:21.950Z,100477.31
2022-12-15T11:27:56.981Z,100482.56
2022-12-15T11:30:29.440Z,100487.06
2022-12-15T11:33:01.393Z,100488.56
2022-12-15T11:35:34.693Z,100492.56
2022-12-15T11:38:08.089Z,100492.34
2022-12-15T11:40:40.067Z,100492.56
2022-12-15T11:43:28.191Z,100495.88
2022-12-15T11:46:10.585Z,100482.28
2022-12-15T11:48:50.260Z,100486.41
2022-12-15T11:51:25.979Z,100489.31
2022-12-15T11:54:07.666Z,100487.78
2022-12-15T11:56:40.447Z,100489.91
2022-12-15T11:59:30.562Z,100486.69
2022-12-15T12:02:17.012Z,100491.97
2022-12-15T12:05:01.622Z,100482.41
2022-12-15T12:07:41.956Z,100479.16
2022-12-15T12:10:24.200Z,100471.97
2022-12-15T12:12:58.535Z,100473.06
2022-12-15T12:15:33.310Z,100468.22
2022-12-15T12:18:08.860Z,100463.47
2022-12-15T12:20:44.780Z,100458.78
2022-12-15T12:23:18.747Z,100466.41
2022-12-15T12:26:02.580Z,100465.00
2022-12-15T12:28:36.933Z,100461.25
2022-12-15T12:31:06.595Z,100469.31
2022-12-15T12:33:40.050Z,100477.31
2022-12-15T12:36:12.378Z,100476.09
2022-12-15T12:38:46.270Z,100480.25
2022-12-15T12:41:26.574Z,100485.84
2022-12-15T12:43:58.122Z,100468.16
2022-12-15T12:46:31.447Z,100471.31
2022-12-15T12:49:06.719Z,100479.19
2022-12-15T12:51:38.064Z,100478.56
2022-12-15T12:54:41.058Z,100478.13
2022-12-15T12:57:37.438Z,100482.28
2022-12-15T13:00:17.789Z,100487.47
2022-12-15T13:03:05.832Z,100490.50
2022-12-15T13:05:35.507Z,100496.63
2022-12-15T13:08:27.067Z,100501.19
2022-12-15T13:10:56.530Z,100492.44
2022-12-15T13:13:48.508Z,100485.03
2022-12-15T13:16:23.937Z,100491.06
2022-12-15T13:19:02.030Z,100479.53
2022-12-15T13:21:54.039Z,100494.16
2022-12-15T13:24:32.697Z,100486.16
2022-12-15T13:27:15.293Z,100478.06
2022-12-15T13:30:00.453Z,100474.47
2022-12-15T13:32:34.853Z,100476.38
2022-12-15T13:35:22.337Z,100475.81
2022-12-15T13:37:53.240Z,100478.28
2022-12-15T13:40:50.977Z,100481.09
2022-12-15T13:43:42.547Z,100487.50
2022-12-15T13:46:17.754Z,100490.97
2022-12-15T13:48:49.278Z,100490.16
2022-12-15T13:51:28.113Z,100488.25
2022-12-15T13:54:00.373Z,100489.88
2022-12-15T13:56:44.741Z,100485.22
2022-12-15T13:59:26.837Z,100488.22
2022-12-15T14:01:55.557Z,100487.78
2022-12-15T14:04:23.559Z,100490.00
2022-12-15T14:06:55.445Z,100491.53
2022-12-15T14:09:28.368Z,100490.78
2022-12-15T14:11:59.160Z,100499.78
2022-12-15T14:14:30.372Z,100490.28
2022-12-15T14:17:02.124Z,100492.72
2022-12-15T14:19:39.124Z,100499.56
2022-12-15T14:22:27.036Z,100497.50
2022-12-15T14:25:00.240Z,100493.41
2022-12-15T14:27:31.247Z,100491.38
2022-12-15T14:30:14.219Z,100494.28
2022-12-15T14:32:43.743Z,100487.06
2022-12-15T14:35:14.674Z,100487.75
2022-12-15T14:37:44.105Z,100494.47
2022-12-15T14:40:17.649Z,100498.50
2022-12-15T14:42:50.573Z,100492.91
2022-12-15T14:45:21.162Z,100496.81
2022-12-15T14:50:48.824Z,100490.13
2022-12-15T14:53:20.954Z,100491.97
2022-12-15T14:55:48.766Z,100491.13
2022-12-15T14:58:33.565Z,100495.63
2022-12-15T15:01:07.177Z,100498.94
2022-12-15T15:03:39.484Z,100497.66
2022-12-15T15:06:17.840Z,100496.44
2022-12-15T15:08:48.947Z,100504.63
2022-12-15T15:11:29.272Z,100499.00
2022-12-15T15:14:04.206Z,100495.28
2022-12-15T15:16:32.416Z,100500.19
2022-12-15T15:19:04.336Z,100508.59
2022-12-15T15:21:36.640Z,100509.53
2022-12-15T15:24:19.617Z,100511.28
2022-12-15T15:26:47.630Z,100516.03
2022-12-15T15:32:16.521Z,100511.31
2022-12-15T15:34:44.859Z,100512.56
2022-12-15T15:37:18.488Z,100513.44
2022-12-15T15:39:48.488Z,100508.72
2022-12-15T15:42:16.388Z,100510.38
2022-12-15T15:44:44.424Z,100507.59
2022-12-15T15:47:22.856Z,100513.28
2022-12-15T15:49:51.577Z,100510.09
2022-12-15T15:52:19.850Z,100516.06
2022-12-15T15:54:48.392Z,100510.88
2022-12-15T15:57:17.383Z,100512.13
2022-12-15T15:59:48.985Z,100509.66
2022-12-15T16:02:18.834Z,100511.38
2022-12-15T16:04:46.982Z,100509.81
2022-12-15T16:07:21.335Z,100509.56
2022-12-15T16:09:49.457Z,100504.25
2022-12-15T16:12:27.576Z,100510.00
2022-12-15T16:14:55.880Z,100516.16
2022-12-15T16:17:25.507Z,100511.22
2022-12-15T16:19:53.310Z,100509.69
2022-12-15T16:22:22.999Z,100516.50
2022-12-15T16:24:50.837Z,100522.75
2022-12-15T16:27:18.728Z,100526.31
2022-12-15T16:29:46.610Z,100527.16
2022-12-15T16:32:14.459Z,100525.84
2022-12-15T16:34:44.078Z,100532.56
2022-12-15T16:37:25.021Z,100537.34
2022-12-15T16:39:52.949Z,100538.75
2022-12-15T16:42:20.753Z,100543.31
2022-12-15T16:44:48.541Z,100537.44
2022-12-15T16:47:16.324Z,100540.84
2022-12-15T16:49:45.881Z,100542.25
2022-12-15T16:52:20.715Z,100542.16
2022-12-15T16:54:51.105Z,100545.06
2022-12-15T16:57:19.532Z,100542.06
2022-12-15T16:59:47.290Z,100546.22
2022-12-15T17:02:28.389Z,100543.59
2022-12-15T17:04:57.806Z,100553.44
2022-12-15T17:07:27.526Z,100563.81
2022-12-15T17:09:55.539Z,100558.38
2022-12-15T17:12:23.325Z,100559.53
2022-12-15T17:14:51.089Z,100564.41
2022-12-15T17:17:21.175Z,100561.53
2022-12-15T17:22:40.136Z,100562.69
2022-12-15T17:25:23.699Z,100569.28
2022-12-15T17:28:13.922Z,100566.59
2022-12-15T17:30:43.002Z,100568.34
2022-12-15T17:33:19.095Z,100574.59
2022-12-15T17:35:48.112Z,100577.09
2022-12-15T17:38:18.944Z,100588.16
2022-12-15T17:40:47.816Z,100580.66
2022-12-15T17:43:18.507Z,100587.84
2022-12-15T17:45:50.721Z,100588.16
2022-12-15T17:48:23.676Z,100594.19
2022-12-15T17:50:54.190Z,100595.34
2022-12-15T17:53:27.737Z,100602.69
2022-12-15T17:55:59.063Z,100599.66
2022-12-15T17:58:31.293Z,100598.13
2022-12-15T18:01:03.090Z,100599.66
2022-12-15T18:03:35.577Z,100602.13
2022-12-15T18:06:09.954Z,100605.84
2022-12-15T18:08:47.644Z,100601.81
2022-12-15T18:11:20.515Z,100609.81
2022-12-15T18:13:54.800Z,100605.22
2022-12-15T18:16:26.477Z,100604.53
2022-12-15T18:18:57.976Z,100593.75
2022-12-15T18:21:34.066Z,100592.66
2022-12-15T18:24:18.654Z,100585.00
2022-12-15T18:27:01.255Z,100587.78
2022-12-15T18:29:34.123Z,100592.03
2022-12-15T18:32:09.547Z,100601.41
2022-12-15T18:34:37.576Z,100602.31
2022-12-15T18:37:16.940Z,100594.59
2022-12-15T18:39:48.501Z,100602.47
2022-12-15T18:42:18.055Z,100605.47
2022-12-15T18:44:48.214Z,100613.25
2022-12-15T18:47:17.742Z,100619.44
2022-12-15T18:49:45.776Z,100622.41
2022-12-15T18:52:18.582Z,100623.72
2022-12-15T18:54:48.552Z,100627.13
2022-12-15T18:57:27.565Z,100624.28
2022-12-15T18:59:58.338Z,100612.75
2022-12-15T19:02:26.253Z,100608.53
2022-12-15T19:04:54.205Z,100620.78
2022-12-15T19:07:21.974Z,100622.91
2022-12-15T19:09:51.272Z,100619.88
2022-12-15T19:12:18.902Z,100617.59
2022-12-15T19:14:47.473Z,100619.28
2022-12-15T19:17:34.728Z,100623.47
2022-12-15T19:20:23.976Z,100624.19
2022-12-15T19:22:53.345Z,100625.47
2022-12-15T19:25:26.790Z,100617.06
2022-12-15T19:27:59.296Z,100620.44
2022-12-15T19:30:28.835Z,100616.75
2022-12-15T19:32:56.664Z,100625.56
2022-12-15T19:35:25.051Z,100622.59
2022-12-15T19:37:55.158Z,100623.22
2022-12-15T19:40:28.346Z,100617.47
2022-12-15T19:42:56.275Z,100613.44
2022-12-15T19:45:27.065Z,100620.34
2022-12-15T19:47:55.087Z,100629.25
2022-12-15T19:50:24.534Z,100629.25
2022-12-15T19:52:55.597Z,100637.84
2022-12-15T19:55:28.884Z,100638.63
2022-12-15T19:57:56.696Z,100629.03
2022-12-15T20:00:27.613Z,100635.50
2022-12-15T20:02:56.679Z,100643.75
2022-12-15T20:05:25.063Z,100636.91
2022-12-15T20:07:54.625Z,100630.19
2022-12-15T20:10:31.825Z,100625.22
2022-12-15T20:13:01.261Z,100626.88
2022-12-15T20:15:29.094Z,100632.53
2022-12-15T20:18:00.092Z,100634.38
2022-12-15T20:20:29.863Z,100630.97
2022-12-15T20:23:02.343Z,100642.31
2022-12-15T20:25:35.630Z,100644.31
2022-12-15T20:28:04.341Z,100638.91
2022-12-15T20:30:35.863Z,100636.28
2022-12-15T20:33:05.183Z,100625.78
2022-12-15T20:35:37.374Z,100632.84
2022-12-15T20:38:18.137Z,100632.84
2022-12-15T20:40:47.329Z,100636.44
2022-12-15T20:43:15.926Z,100640.69
2022-12-15T20:45:44.060Z,100638.06
2022-12-15T20:48:14.483Z,100637.16
2022-12-15T20:50:44.192Z,100636.50
2022-12-15T20:53:18.109Z,100635.78
2022-12-15T20:55:48.273Z,100636.84
2022-12-15T20:58:16.631Z,100636.91
2022-12-15T21:00:44.613Z,100647.41
2022-12-15T21:03:20.749Z,100642.94
2022-12-15T21:05:49.474Z,100635.47
2022-12-15T21:08:19.522Z,100631.81
2022-12-15T21:10:48.699Z,100639.84
2022-12-15T21:13:19.469Z,100638.91
2022-12-15T21:15:47.820Z,100635.63
2022-12-15T21:21:12.201Z,100653.75
2022-12-15T21:23:42.906Z,100639.94
2022-12-15T21:26:12.315Z,100648.28
2022-12-15T21:28:39.859Z,100653.66
2022-12-15T21:31:07.747Z,100647.88
2022-12-15T21:33:35.699Z,100652.41
2022-12-15T21:36:03.721Z,100655.75
2022-12-15T21:38:35.577Z,100644.47
2022-12-15T21:41:07.174Z,100653.22
2022-12-15T21:43:37.122Z,100650.34
2022-12-15T21:46:14.375Z,100649.31
2022-12-15T21:48:59.899Z,100646.69
2022-12-15T21:51:29.693Z,100645.91
2022-12-15T21:53:57.422Z,100646.06
2022-12-15T21:56:25.165Z,100647.88
2022-12-15T22:01:42.836Z,100649.78
2022-12-15T22:04:18.124Z,100648.97
2022-12-15T22:06:50.501Z,100656.91
2022-12-15T22:09:19.021Z,100653.50
2022-12-15T22:11:49.579Z,100650.38
2022-12-15T22:14:25.834Z,100650.78
2022-12-15T22:16:53.700Z,100648.50
2022-12-15T22:19:23.200Z,100663.16
2022-12-15T22:21:51.998Z,100656.31
2022-12-15T22:24:20.991Z,100644.03
2022-12-15T22:26:49.201Z,100645.59
2022-12-15T22:29:21.564Z,100649.16
2022-12-15T22:31:50.644Z,100651.41
2022-12-15T22:34:22.213Z,100653.88
2022-12-15T22:36:50.921Z,100649.84
2022-12-15T22:39:20.454Z,100645.03
2022-12-15T22:41:50.102Z,100643.34
2022-12-15T22:44:22.248Z,100642.06
2022-12-15T22:46:51.704Z,100635.50
2022-12-15T22:49:21.379Z,100637.44
2022-12-15T22:51:49.209Z,100649.06
2022-12-15T22:54:20.237Z,100646.00
2022-12-15T22:56:50.612Z,100652.03
2022-12-15T22:59:25.937Z,100649.16
2022-12-15T23:01:53.787Z,100648.44
2022-12-15T23:04:22.821Z,100648.63
2022-12-15T23:06:50.771Z,100646.16
2022-12-15T23:09:19.631Z,100649.47
2022-12-15T23:11:46.424Z,100651.81
2022-12-15T23:14:16.809Z,100656.47
2022-12-15T23:16:46.413Z,100658.31
2022-12-15T23:19:23.935Z,100662.81
2022-12-15T23:21:51.965Z,100658.59
2022-12-15T23:24:19.791Z,100662.84
2022-12-15T23:26:47.541Z,100657.72
2022-12-15T23:29:15.349Z,100662.84
2022-12-15T23:31:43.204Z,100664.03
2022-12-15T23:34:12.612Z,100668.03
2022-12-15T23:36:40.463Z,100671.00
2022-12-15T23:39:08.233Z,100664.88
2022-12-15T23:41:36.707Z,100669.19
2022-12-15T23:44:05.622Z,100669.94
2022-12-15T23:46:33.991Z,100669.28
2022-12-15T23:49:01.825Z,100669.69
2022-12-15T23:51:30.941Z,100673.13
2022-12-15T23:53:58.478Z,100661.16
2022-12-15T23:56:27.193Z,100669.34
2022-12-15T23:58:56.926Z,100669.34
